createdAt,value
2023-05-20T00:03:08.341Z,12.18
2023-05-20T00:08:11.158Z,12.13
2023-05-20T00:13:12.777Z,12.02
2023-05-20T00:18:14.328Z,12.07
2023-05-20T00:23:15.931Z,12.02
2023-05-20T00:28:17.548Z,12.05
2023-05-20T00:33:19.135Z,12.01
2023-05-20T00:38:20.801Z,11.96
2023-05-20T00:43:25.244Z,11.96
2023-05-20T00:48:36.728Z,11.94
2023-05-20T00:53:39.207Z,11.92
2023-05-20T00:58:41.018Z,11.88
2023-05-20T01:03:42.543Z,11.88
2023-05-20T01:08:44.166Z,11.85
2023-05-20T01:13:50.027Z,11.83
2023-05-20T01:18:55.987Z,11.78
2023-05-20T01:23:57.577Z,11.79
2023-05-20T01:29:04.305Z,11.78
2023-05-20T01:34:06.718Z,11.77
2023-05-20T01:39:08.952Z,11.77
2023-05-20T01:44:10.746Z,11.75
2023-05-20T01:49:12.306Z,11.70
2023-05-20T01:54:13.849Z,11.69
2023-05-20T01:59:15.452Z,11.63
2023-05-20T02:04:19.104Z,11.63
2023-05-20T02:09:20.796Z,11.58
2023-05-20T02:14:22.357Z,11.57
2023-05-20T02:19:24.145Z,11.56
2023-05-20T02:24:25.836Z,11.56
2023-05-20T02:29:27.440Z,11.58
2023-05-20T02:34:30.463Z,11.60
2023-05-20T02:39:32.166Z,11.59
2023-05-20T02:44:33.681Z,11.56
2023-05-20T02:49:35.285Z,11.55
2023-05-20T02:54:37.014Z,11.47
2023-05-20T02:59:38.512Z,11.50
2023-05-20T03:04:41.034Z,11.53
2023-05-20T03:09:42.646Z,11.51
2023-05-20T03:14:44.251Z,11.51
2023-05-20T03:19:46.111Z,11.44
2023-05-20T03:24:48.256Z,11.49
2023-05-20T03:29:49.884Z,11.47
2023-05-20T03:34:52.358Z,11.47
2023-05-20T03:39:53.933Z,11.44
2023-05-20T03:44:55.628Z,11.44
2023-05-20T03:49:57.235Z,11.40
2023-05-20T03:54:58.823Z,11.44
2023-05-20T04:00:02.245Z,11.45
2023-05-20T04:05:04.224Z,11.47
2023-05-20T04:10:06.317Z,11.44
2023-05-20T04:15:10.111Z,11.43
2023-05-20T04:20:12.057Z,11.48
2023-05-20T04:25:14.091Z,11.46
2023-05-20T04:30:18.518Z,11.49
2023-05-20T04:35:20.178Z,11.49
2023-05-20T04:40:22.972Z,11.59
2023-05-20T04:45:25.886Z,11.62
2023-05-20T04:50:28.526Z,11.77
2023-05-20T04:55:30.819Z,11.78
2023-05-20T05:00:32.373Z,11.80
2023-05-20T05:05:36.771Z,11.81
2023-05-20T05:10:38.288Z,11.85
2023-05-20T05:15:39.875Z,11.90
2023-05-20T05:20:41.639Z,11.91
2023-05-20T05:25:43.164Z,11.93
2023-05-20T05:30:44.737Z,12.07
2023-05-20T05:35:46.293Z,12.31
2023-05-20T05:40:47.833Z,12.55
2023-05-20T05:45:49.368Z,12.64
2023-05-20T05:50:50.938Z,12.83
2023-05-20T05:55:52.468Z,13.17
2023-05-20T06:00:54.842Z,13.47
2023-05-20T06:05:58.195Z,13.39
2023-05-20T06:10:59.734Z,13.41
2023-05-20T06:16:01.333Z,13.23
2023-05-20T06:21:03.025Z,13.34
2023-05-20T06:26:04.662Z,13.40
2023-05-20T06:31:06.630Z,13.30
2023-05-20T06:36:08.268Z,13.18
2023-05-20T06:41:09.827Z,13.28
2023-05-20T06:46:11.401Z,14.39
2023-05-20T06:51:12.990Z,14.64
2023-05-20T06:56:14.659Z,14.70
2023-05-20T07:01:18.356Z,14.86
2023-05-20T07:06:20.150Z,14.81
2023-05-20T07:11:21.874Z,14.65
2023-05-20T07:16:23.502Z,14.28
2023-05-20T07:21:25.111Z,14.25
2023-05-20T07:26:26.667Z,14.06
2023-05-20T07:31:28.181Z,13.97
2023-05-20T07:36:29.899Z,14.03
2023-05-20T07:41:31.469Z,14.33
2023-05-20T07:46:33.215Z,14.54
2023-05-20T07:51:34.865Z,14.60
2023-05-20T07:56:36.501Z,14.85
2023-05-20T08:01:41.043Z,15.12
2023-05-20T08:06:44.440Z,15.19
2023-05-20T08:11:47.484Z,15.34
2023-05-20T08:16:50.182Z,15.56
2023-05-20T08:21:53.403Z,15.79
2023-05-20T08:26:54.980Z,15.85
2023-05-20T08:31:57.018Z,15.98
2023-05-20T08:36:58.556Z,15.96
2023-05-20T08:42:00.348Z,16.00
2023-05-20T08:47:03.854Z,16.13
2023-05-20T08:52:08.488Z,16.42
2023-05-20T08:57:10.761Z,16.63
2023-05-20T09:02:13.860Z,16.83
2023-05-20T09:07:26.243Z,16.75
2023-05-20T09:12:27.918Z,16.94
2023-05-20T09:17:29.538Z,17.22
2023-05-20T09:22:31.127Z,17.46
2023-05-20T09:27:32.733Z,17.48
2023-05-20T09:32:34.392Z,17.57
2023-05-20T09:37:36.973Z,17.53
2023-05-20T09:42:42.847Z,17.68
2023-05-20T09:47:46.041Z,17.71
2023-05-20T09:52:49.828Z,17.90
2023-05-20T09:57:53.221Z,18.19
2023-05-20T10:02:55.026Z,18.54
2023-05-20T10:07:59.543Z,20.32
2023-05-20T10:13:03.739Z,23.52
2023-05-20T10:18:23.177Z,24.94
2023-05-20T10:23:28.947Z,25.89
2023-05-20T10:28:33.670Z,27.30
2023-05-20T10:33:45.059Z,26.97
2023-05-20T10:38:53.511Z,26.44
2023-05-20T10:44:03.193Z,26.68
2023-05-20T10:49:22.417Z,24.68
2023-05-20T10:54:26.287Z,21.19
2023-05-20T10:59:27.966Z,19.97
2023-05-20T11:04:30.934Z,19.94
2023-05-20T11:09:33.939Z,19.34
2023-05-20T11:14:35.725Z,19.35
2023-05-20T11:19:37.822Z,19.03
2023-05-20T11:24:39.410Z,19.08
2023-05-20T11:29:41.097Z,19.05
2023-05-20T11:34:42.853Z,18.82
2023-05-20T11:39:44.478Z,18.67
2023-05-20T11:44:46.453Z,18.66
2023-05-20T11:49:49.557Z,18.74
2023-05-20T11:54:53.446Z,18.71
2023-05-20T11:59:55.002Z,18.72
2023-05-20T12:04:58.175Z,18.88
2023-05-20T12:09:59.777Z,18.82
2023-05-20T12:15:01.429Z,18.85
2023-05-20T12:20:03.002Z,18.81
2023-05-20T12:25:05.035Z,19.07
2023-05-20T12:30:08.079Z,18.97
2023-05-20T12:35:10.440Z,19.13
2023-05-20T12:40:12.810Z,19.32
2023-05-20T12:45:14.405Z,19.24
2023-05-20T12:50:16.222Z,19.11
2023-05-20T12:55:17.751Z,18.96
2023-05-20T13:00:19.333Z,18.93
2023-05-20T13:05:22.107Z,19.15
2023-05-20T13:10:23.652Z,19.05
2023-05-20T13:15:25.779Z,18.84
2023-05-20T13:20:27.354Z,18.87
2023-05-20T13:25:29.268Z,19.15
2023-05-20T13:30:30.883Z,19.12
2023-05-20T13:35:32.469Z,19.27
2023-05-20T13:40:34.224Z,19.35
2023-05-20T13:45:36.001Z,19.16
2023-05-20T13:50:37.571Z,19.18
2023-05-20T13:55:42.060Z,19.13
2023-05-20T14:00:43.650Z,19.15
2023-05-20T14:05:46.023Z,19.05
2023-05-20T14:10:47.671Z,18.91
2023-05-20T14:15:54.578Z,18.97
2023-05-20T14:20:56.416Z,18.77
2023-05-20T14:25:58.042Z,18.72
2023-05-20T14:30:59.606Z,18.74
2023-05-20T14:36:01.215Z,18.86
2023-05-20T14:41:02.773Z,19.00
2023-05-20T14:46:04.569Z,18.86
2023-05-20T14:51:06.185Z,18.72
2023-05-20T14:56:07.756Z,18.79
2023-05-20T15:01:09.446Z,18.82
2023-05-20T15:06:11.438Z,18.71
2023-05-20T15:11:12.992Z,18.53
2023-05-20T15:16:14.897Z,18.34
2023-05-20T15:21:16.554Z,18.43
2023-05-20T15:26:18.199Z,18.36
2023-05-20T15:31:19.713Z,18.46
2023-05-20T15:36:21.714Z,18.64
2023-05-20T15:41:23.280Z,18.70
2023-05-20T15:46:26.311Z,18.39
2023-05-20T15:51:27.927Z,18.42
2023-05-20T15:56:31.249Z,18.47
2023-05-20T16:01:32.917Z,18.37
2023-05-20T16:06:34.526Z,18.32
2023-05-20T16:11:36.363Z,18.15
2023-05-20T16:16:38.181Z,17.79
2023-05-20T16:21:40.415Z,17.82
2023-05-20T16:26:41.967Z,17.69
2023-05-20T16:31:46.472Z,17.67
2023-05-20T16:36:48.226Z,17.78
2023-05-20T16:41:50.922Z,17.68
2023-05-20T16:46:54.039Z,17.69
2023-05-20T16:51:56.016Z,17.55
2023-05-20T16:56:57.691Z,17.48
2023-05-20T17:01:59.273Z,17.39
2023-05-20T17:07:01.680Z,17.36
2023-05-20T17:12:04.349Z,17.47
2023-05-20T17:17:06.041Z,17.57
2023-05-20T17:22:07.686Z,17.50
2023-05-20T17:27:09.502Z,17.37
2023-05-20T17:32:12.022Z,17.30
2023-05-20T17:37:13.570Z,17.16
2023-05-20T17:42:15.160Z,17.03
2023-05-20T17:47:16.838Z,17.00
2023-05-20T17:52:18.358Z,16.92
2023-05-20T17:57:20.298Z,16.94
2023-05-20T18:02:21.927Z,16.95
2023-05-20T18:07:23.646Z,16.90
2023-05-20T18:12:25.718Z,16.79
2023-05-20T18:17:27.320Z,16.65
2023-05-20T18:22:29.263Z,16.59
2023-05-20T18:27:32.094Z,16.58
2023-05-20T18:32:34.271Z,16.56
2023-05-20T18:37:36.376Z,16.49
2023-05-20T18:42:38.373Z,16.44
2023-05-20T18:47:40.382Z,16.36
2023-05-20T18:52:42.166Z,16.32
2023-05-20T18:57:43.779Z,16.26
2023-05-20T19:02:45.517Z,16.24
2023-05-20T19:07:47.143Z,16.21
2023-05-20T19:12:48.756Z,16.16
2023-05-20T19:17:50.706Z,16.07
2023-05-20T19:22:52.488Z,15.99
2023-05-20T19:27:54.166Z,15.88
2023-05-20T19:32:55.984Z,15.82
2023-05-20T19:37:57.746Z,15.74
2023-05-20T19:42:59.433Z,15.77
2023-05-20T19:48:01.356Z,15.68
2023-05-20T19:53:06.312Z,15.61
2023-05-20T19:58:08.015Z,15.54
2023-05-20T20:03:09.598Z,15.50
2023-05-20T20:08:11.291Z,15.40
2023-05-20T20:13:12.931Z,15.31
2023-05-20T20:18:14.645Z,15.23
2023-05-20T20:23:16.212Z,15.23
2023-05-20T20:28:18.166Z,15.16
2023-05-20T20:33:19.961Z,15.16
2023-05-20T20:38:21.530Z,15.07
2023-05-20T20:43:23.209Z,15.06
2023-05-20T20:48:29.848Z,14.95
2023-05-20T20:53:31.745Z,14.85
2023-05-20T20:58:34.965Z,14.78
2023-05-20T21:03:40.554Z,14.75
2023-05-20T21:08:42.618Z,14.65
2023-05-20T21:13:44.210Z,14.62
2023-05-20T21:18:45.836Z,14.60
2023-05-20T21:23:49.081Z,14.55
2023-05-20T21:28:51.838Z,14.48
2023-05-20T21:33:53.409Z,14.45
2023-05-20T21:38:55.105Z,14.32
2023-05-20T21:43:56.640Z,14.21
2023-05-20T21:48:58.259Z,14.17
2023-05-20T21:53:59.807Z,14.14
2023-05-20T21:59:01.348Z,14.04
2023-05-20T22:04:03.477Z,14.02
2023-05-20T22:09:05.845Z,14.02
2023-05-20T22:14:07.427Z,14.00
2023-05-20T22:19:10.036Z,13.99
2023-05-20T22:24:12.099Z,13.98
2023-05-20T22:29:13.601Z,13.98
2023-05-20T22:34:15.114Z,13.97
2023-05-20T22:39:16.652Z,14.11
2023-05-20T22:44:18.248Z,14.17
2023-05-20T22:49:19.935Z,14.23
2023-05-20T22:54:21.541Z,14.24
2023-05-20T22:59:23.782Z,14.18
2023-05-20T23:04:25.771Z,14.22
2023-05-20T23:09:27.339Z,14.21
2023-05-20T23:14:28.991Z,14.20
2023-05-20T23:19:30.537Z,14.22
2023-05-20T23:24:32.092Z,14.15
2023-05-20T23:29:33.639Z,14.26
2023-05-20T23:34:35.176Z,14.24
2023-05-20T23:39:36.949Z,14.24
2023-05-20T23:44:39.181Z,14.30
2023-05-20T23:49:41.627Z,14.31
2023-05-20T23:54:43.169Z,14.34
2023-05-20T23:59:44.930Z,14.36
